KTUL/TUL METAR and TAF weather

Enter ICAO airport designator
Station Type Date Time Source
KTUL METAR 2021/05/12 04:53 UTC NOAA

KTUL 120453Z 04006KT 10SM OVC050 13/09 A3022 RMK AO2 SLP231 T01330089


Station Type Date Time Source
KTUL Decoded METAR 2021/05/12 04:53 UTC NOAA

TULSA INTERNATIONAL AIRPORT, OK, United States (KTUL) 36-12N 95-53W 207M
May 12, 2021 - 12:53 AM EDT / 2021.05.12 0453 UTC
Wind: from the NE (040 degrees) at 7 MPH (6 KT):0
Visibility: 10 mile(s):0
Sky conditions: overcast
Temperature: 55.9 F (13.3 C)
Dew Point: 48.0 F (8.9 C)
Relative Humidity: 74%
Pressure (altimeter): 30.22 in. Hg (1023 hPa)
ob: KTUL 120453Z 04006KT 10SM OVC050 13/09 A3022 RMK AO2 SLP231 T01330089
cycle: 5

Station Type Date Time Source
KTUL TAF 2021/05/12 06:22 UTC NOAA

TAF KTUL 120520Z 1206/1306 02005KT P6SM BKN045
FM121300 04008KT P6SM OVC027
FM121800 04008KT P6SM BKN035
FM130200 VRB04KT P6SM SCT060

Example: see airport list